sensor_id;sensor_type;location;lat;lon;timestamp;pressure;altitude;pressure_sealevel;temperature;humidity
80149;BME280;69473;42.426;26.644;2023-11-21T00:00:13;98843.16;;;5.28;74.54
80149;BME280;69473;42.426;26.644;2023-11-21T00:02:39;98844.06;;;5.30;73.62
80149;BME280;69473;42.426;26.644;2023-11-21T00:05:15;98848.28;;;5.28;73.89
80149;BME280;69473;42.426;26.644;2023-11-21T00:07:41;98842.34;;;5.31;73.79
80149;BME280;69473;42.426;26.644;2023-11-21T00:10:08;98840.47;;;5.21;73.16
80149;BME280;69473;42.426;26.644;2023-11-21T00:12:35;98848.84;;;5.09;74.59
80149;BME280;69473;42.426;26.644;2023-11-21T00:15:02;98858.22;;;5.07;74.48
80149;BME280;69473;42.426;26.644;2023-11-21T00:17:28;98858.31;;;5.13;74.13
80149;BME280;69473;42.426;26.644;2023-11-21T00:19:53;98855.03;;;5.20;74.49
80149;BME280;69473;42.426;26.644;2023-11-21T00:22:19;98863.66;;;5.25;73.63
80149;BME280;69473;42.426;26.644;2023-11-21T00:24:45;98867.06;;;5.24;73.53
80149;BME280;69473;42.426;26.644;2023-11-21T00:27:11;98871.91;;;5.06;75.09
80149;BME280;69473;42.426;26.644;2023-11-21T00:29:37;98870.09;;;4.99;74.00
80149;BME280;69473;42.426;26.644;2023-11-21T00:32:05;98869.19;;;4.97;74.18
80149;BME280;69473;42.426;26.644;2023-11-21T00:34:31;98879.50;;;5.01;74.39
80149;BME280;69473;42.426;26.644;2023-11-21T00:36:56;98868.44;;;5.04;74.14
80149;BME280;69473;42.426;26.644;2023-11-21T00:39:22;98874.47;;;5.07;73.89
80149;BME280;69473;42.426;26.644;2023-11-21T00:41:48;98873.53;;;5.01;74.70
80149;BME280;69473;42.426;26.644;2023-11-21T00:44:13;98875.06;;;4.90;75.67
80149;BME280;69473;42.426;26.644;2023-11-21T00:46:39;98883.47;;;4.82;75.77
80149;BME280;69473;42.426;26.644;2023-11-21T00:49:05;98882.44;;;4.73;76.19
80149;BME280;69473;42.426;26.644;2023-11-21T00:51:31;98885.78;;;4.69;76.48
80149;BME280;69473;42.426;26.644;2023-11-21T00:53:56;98887.69;;;4.79;75.38
80149;BME280;69473;42.426;26.644;2023-11-21T00:56:22;98885.09;;;4.77;75.63
80149;BME280;69473;42.426;26.644;2023-11-21T00:58:48;98878.16;;;4.73;76.59
80149;BME280;69473;42.426;26.644;2023-11-21T01:01:18;98878.22;;;4.76;76.28
80149;BME280;69473;42.426;26.644;2023-11-21T01:03:43;98883.34;;;4.76;76.16
80149;BME280;69473;42.426;26.644;2023-11-21T01:06:11;98888.47;;;4.76;77.06
80149;BME280;69473;42.426;26.644;2023-11-21T01:08:36;98885.97;;;4.78;77.25
80149;BME280;69473;42.426;26.644;2023-11-21T01:11:02;98881.56;;;4.72;76.53
80149;BME280;69473;42.426;26.644;2023-11-21T01:13:27;98870.34;;;4.67;77.03
80149;BME280;69473;42.426;26.644;2023-11-21T01:15:53;98878.94;;;4.69;76.84
80149;BME280;69473;42.426;26.644;2023-11-21T01:18:19;98876.38;;;4.69;76.68
80149;BME280;69473;42.426;26.644;2023-11-21T01:20:45;98873.06;;;4.76;76.08
80149;BME280;69473;42.426;26.644;2023-11-21T01:23:13;98873.03;;;4.73;76.67
80149;BME280;69473;42.426;26.644;2023-11-21T01:25:38;98877.22;;;4.68;77.11
80149;BME280;69473;42.426;26.644;2023-11-21T01:28:04;98867.00;;;4.71;77.01
80149;BME280;69473;42.426;26.644;2023-11-21T01:30:29;98865.31;;;4.73;76.75
80149;BME280;69473;42.426;26.644;2023-11-21T01:32:55;98859.44;;;4.77;77.22
80149;BME280;69473;42.426;26.644;2023-11-21T01:35:20;98870.41;;;4.70;76.27
80149;BME280;69473;42.426;26.644;2023-11-21T01:37:46;98872.03;;;4.67;75.94
80149;BME280;69473;42.426;26.644;2023-11-21T01:40:13;98872.69;;;4.55;76.94
80149;BME280;69473;42.426;26.644;2023-11-21T01:42:40;98865.75;;;4.51;77.31
80149;BME280;69473;42.426;26.644;2023-11-21T01:45:06;98857.38;;;4.61;77.80
80149;BME280;69473;42.426;26.644;2023-11-21T01:47:33;98861.72;;;4.63;77.15
80149;BME280;69473;42.426;26.644;2023-11-21T01:49:59;98865.03;;;4.56;77.35
80149;BME280;69473;42.426;26.644;2023-11-21T01:52:25;98865.94;;;4.60;77.23
80149;BME280;69473;42.426;26.644;2023-11-21T01:54:52;98867.72;;;4.64;76.91
80149;BME280;69473;42.426;26.644;2023-11-21T01:57:19;98872.69;;;4.55;76.88
80149;BME280;69473;42.426;26.644;2023-11-21T01:59:49;98870.22;;;4.61;76.56
80149;BME280;69473;42.426;26.644;2023-11-21T02:02:15;98870.34;;;4.67;76.78
80149;BME280;69473;42.426;26.644;2023-11-21T02:04:42;98874.66;;;4.68;77.31
80149;BME280;69473;42.426;26.644;2023-11-21T02:07:08;98868.66;;;4.68;76.98
80149;BME280;69473;42.426;26.644;2023-11-21T02:09:33;98863.53;;;4.68;77.03
80149;BME280;69473;42.426;26.644;2023-11-21T02:12:00;98869.53;;;4.68;77.65
80149;BME280;69473;42.426;26.644;2023-11-21T02:14:26;98865.88;;;4.57;77.68
80149;BME280;69473;42.426;26.644;2023-11-21T02:16:53;98859.03;;;4.56;78.59
80149;BME280;69473;42.426;26.644;2023-11-21T02:19:21;98859.19;;;4.65;77.83
80149;BME280;69473;42.426;26.644;2023-11-21T02:21:52;98862.59;;;4.64;78.46
80149;BME280;69473;42.426;26.644;2023-11-21T02:24:19;98862.59;;;4.64;78.01
80149;BME280;69473;42.426;26.644;2023-11-21T02:26:45;98867.78;;;4.67;79.08
80149;BME280;69473;42.426;26.644;2023-11-21T02:29:11;98867.94;;;4.76;78.50
80149;BME280;69473;42.426;26.644;2023-11-21T02:31:39;98875.69;;;4.79;78.79
80149;BME280;69473;42.426;26.644;2023-11-21T02:34:17;98873.22;;;4.84;79.07
80149;BME280;69473;42.426;26.644;2023-11-21T02:36:44;98874.22;;;4.92;78.67
80149;BME280;69473;42.426;26.644;2023-11-21T02:39:10;98868.28;;;4.95;78.67
80149;BME280;69473;42.426;26.644;2023-11-21T02:41:37;98861.25;;;4.84;79.51
80149;BME280;69473;42.426;26.644;2023-11-21T02:44:03;98869.66;;;4.76;79.41
80149;BME280;69473;42.426;26.644;2023-11-21T02:46:29;98868.84;;;4.77;79.62
80149;BME280;69473;42.426;26.644;2023-11-21T02:48:54;98866.28;;;4.78;80.11
80149;BME280;69473;42.426;26.644;2023-11-21T02:51:20;98857.72;;;4.79;79.48
80149;BME280;69473;42.426;26.644;2023-11-21T02:53:46;98869.75;;;4.80;80.27
80149;BME280;69473;42.426;26.644;2023-11-21T02:56:14;98862.81;;;4.76;80.47
80149;BME280;69473;42.426;26.644;2023-11-21T02:58:43;98864.44;;;4.71;81.14
80149;BME280;69473;42.426;26.644;2023-11-21T03:01:10;98864.44;;;4.71;80.05
80149;BME280;69473;42.426;26.644;2023-11-21T03:03:37;98866.00;;;4.63;79.82
80149;BME280;69473;42.426;26.644;2023-11-21T03:06:08;98872.78;;;4.61;80.11
80149;BME280;69473;42.426;26.644;2023-11-21T03:08:34;98876.19;;;4.60;79.97
80149;BME280;69473;42.426;26.644;2023-11-21T03:11:01;98881.16;;;4.51;80.39
80149;BME280;69473;42.426;26.644;2023-11-21T03:13:28;98879.44;;;4.50;81.56
80149;BME280;69473;42.426;26.644;2023-11-21T03:15:54;98881.34;;;4.60;81.96
80149;BME280;69473;42.426;26.644;2023-11-21T03:18:19;98884.19;;;4.75;81.72
80149;BME280;69473;42.426;26.644;2023-11-21T03:20:47;98874.59;;;4.65;82.05
80149;BME280;69473;42.426;26.644;2023-11-21T03:23:13;98876.25;;;4.63;81.65
80149;BME280;69473;42.426;26.644;2023-11-21T03:25:38;98886.53;;;4.63;82.39
80149;BME280;69473;42.426;26.644;2023-11-21T03:28:04;98882.19;;;4.59;82.40
80149;BME280;69473;42.426;26.644;2023-11-21T03:30:30;98881.22;;;4.54;82.67
80149;BME280;69473;42.426;26.644;2023-11-21T03:32:56;98883.16;;;4.67;82.61
80149;BME280;69473;42.426;26.644;2023-11-21T03:35:22;98884.00;;;4.65;82.41
80149;BME280;69473;42.426;26.644;2023-11-21T03:37:47;98884.75;;;4.59;83.11
80149;BME280;69473;42.426;26.644;2023-11-21T03:40:13;98895.06;;;4.62;82.62
80149;BME280;69473;42.426;26.644;2023-11-21T03:42:39;98898.56;;;4.67;83.06
80149;BME280;69473;42.426;26.644;2023-11-21T03:45:08;98897.75;;;4.68;82.60
80149;BME280;69473;42.426;26.644;2023-11-21T03:47:34;98900.19;;;4.62;83.25
80149;BME280;69473;42.426;26.644;2023-11-21T03:50:00;98901.00;;;4.59;83.71
80149;BME280;69473;42.426;26.644;2023-11-21T03:52:26;98898.44;;;4.58;82.51
80149;BME280;69473;42.426;26.644;2023-11-21T03:54:53;98898.19;;;4.46;83.22
80149;BME280;69473;42.426;26.644;2023-11-21T03:57:20;98889.56;;;4.44;83.82
80149;BME280;69473;42.426;26.644;2023-11-21T03:59:46;98896.44;;;4.45;83.60
80149;BME280;69473;42.426;26.644;2023-11-21T04:02:12;98900.75;;;4.47;83.78
80149;BME280;69473;42.426;26.644;2023-11-21T04:04:38;98897.47;;;4.53;83.04
80149;BME280;69473;42.426;26.644;2023-11-21T04:07:03;98902.59;;;4.54;82.83
80149;BME280;69473;42.426;26.644;2023-11-21T04:09:29;98903.50;;;4.55;82.59
80149;BME280;69473;42.426;26.644;2023-11-21T04:11:55;98906.88;;;4.54;82.05
80149;BME280;69473;42.426;26.644;2023-11-21T04:14:21;98902.59;;;4.53;82.20
80149;BME280;69473;42.426;26.644;2023-11-21T04:16:46;98904.13;;;4.45;82.24
80149;BME280;69473;42.426;26.644;2023-11-21T04:19:12;98905.09;;;4.50;84.28
80149;BME280;69473;42.426;26.644;2023-11-21T04:21:43;98904.44;;;4.60;84.64
80149;BME280;69473;42.426;26.644;2023-11-21T04:24:09;98903.13;;;4.36;82.17
80149;BME280;69473;42.426;26.644;2023-11-21T04:26:35;98899.53;;;4.28;83.51
80149;BME280;69473;42.426;26.644;2023-11-21T04:29:00;98900.25;;;4.23;83.13
80149;BME280;69473;42.426;26.644;2023-11-21T04:31:26;98897.53;;;4.15;83.02
80149;BME280;69473;42.426;26.644;2023-11-21T04:33:51;98890.66;;;4.14;83.76
80149;BME280;69473;42.426;26.644;2023-11-21T04:36:17;98895.91;;;4.20;84.03
80149;BME280;69473;42.426;26.644;2023-11-21T04:38:43;98900.44;;;4.30;83.69
80149;BME280;69473;42.426;26.644;2023-11-21T04:41:09;98905.69;;;4.38;84.82
80149;BME280;69473;42.426;26.644;2023-11-21T04:43:35;98906.69;;;4.45;84.26
80149;BME280;69473;42.426;26.644;2023-11-21T04:46:00;98897.94;;;4.33;83.23
80149;BME280;69473;42.426;26.644;2023-11-21T04:48:27;98897.88;;;4.30;83.36
80149;BME280;69473;42.426;26.644;2023-11-21T04:50:53;98899.53;;;4.28;84.06
80149;BME280;69473;42.426;26.644;2023-11-21T04:53:18;98899.59;;;4.31;83.23
80149;BME280;69473;42.426;26.644;2023-11-21T04:55:44;98896.97;;;4.30;84.04
80149;BME280;69473;42.426;26.644;2023-11-21T04:58:11;98901.31;;;4.32;83.99
80149;BME280;69473;42.426;26.644;2023-11-21T05:00:38;98899.66;;;4.34;83.67
80149;BME280;69473;42.426;26.644;2023-11-21T05:03:04;98899.66;;;4.34;84.17
80149;BME280;69473;42.426;26.644;2023-11-21T05:05:30;98901.31;;;4.32;83.70
80149;BME280;69473;42.426;26.644;2023-11-21T05:07:56;98904.66;;;4.28;82.93
80149;BME280;69473;42.426;26.644;2023-11-21T05:10:22;98902.75;;;4.18;83.37
80149;BME280;69473;42.426;26.644;2023-11-21T05:12:48;98916.94;;;4.04;82.36
80149;BME280;69473;42.426;26.644;2023-11-21T05:15:16;98922.84;;;4.00;83.31
80149;BME280;69473;42.426;26.644;2023-11-21T05:17:46;98929.63;;;3.98;82.34
80149;BME280;69473;42.426;26.644;2023-11-21T05:20:15;98927.97;;;4.00;82.28
80149;BME280;69473;42.426;26.644;2023-11-21T05:22:50;98927.13;;;3.99;81.81
80149;BME280;69473;42.426;26.644;2023-11-21T05:25:16;98933.25;;;4.06;82.86
80149;BME280;69473;42.426;26.644;2023-11-21T05:27:45;98931.69;;;4.14;82.62
80149;BME280;69473;42.426;26.644;2023-11-21T05:30:11;98937.00;;;4.22;82.23
80149;BME280;69473;42.426;26.644;2023-11-21T05:32:37;98933.72;;;4.27;82.26
80149;BME280;69473;42.426;26.644;2023-11-21T05:35:03;98937.22;;;4.32;81.89
80149;BME280;69473;42.426;26.644;2023-11-21T05:37:29;98937.59;;;4.49;82.37
80149;BME280;69473;42.426;26.644;2023-11-21T05:39:55;98934.56;;;4.70;80.88
80149;BME280;69473;42.426;26.644;2023-11-21T05:42:22;98937.53;;;4.92;79.11
80149;BME280;69473;42.426;26.644;2023-11-21T05:44:49;98930.06;;;5.04;79.62
80149;BME280;69473;42.426;26.644;2023-11-21T05:47:14;98916.00;;;5.30;78.64
80149;BME280;69473;42.426;26.644;2023-11-21T05:49:40;98921.78;;;5.72;78.06
80149;BME280;69473;42.426;26.644;2023-11-21T05:52:06;98919.81;;;6.10;76.92
80149;BME280;69473;42.426;26.644;2023-11-21T05:54:32;98921.81;;;6.30;76.14
80149;BME280;69473;42.426;26.644;2023-11-21T05:56:58;98927.25;;;6.54;75.07
80149;BME280;69473;42.426;26.644;2023-11-21T05:59:23;98920.78;;;6.90;74.02
80149;BME280;69473;42.426;26.644;2023-11-21T06:01:49;98928.84;;;7.22;72.65
80149;BME280;69473;42.426;26.644;2023-11-21T06:04:14;98926.47;;;7.42;72.48
80149;BME280;69473;42.426;26.644;2023-11-21T06:06:40;98928.69;;;7.07;73.59
80149;BME280;69473;42.426;26.644;2023-11-21T06:09:06;98931.97;;;6.89;74.69
80149;BME280;69473;42.426;26.644;2023-11-21T06:11:34;98942.06;;;6.74;76.04
80149;BME280;69473;42.426;26.644;2023-11-21T06:14:00;98939.66;;;6.86;75.70
80149;BME280;69473;42.426;26.644;2023-11-21T06:16:25;98941.94;;;7.42;74.68
80149;BME280;69473;42.426;26.644;2023-11-21T06:18:51;98937.75;;;7.58;73.87
80149;BME280;69473;42.426;26.644;2023-11-21T06:21:16;98945.50;;;7.59;73.52
80149;BME280;69473;42.426;26.644;2023-11-21T06:23:43;98950.72;;;7.66;74.42
80149;BME280;69473;42.426;26.644;2023-11-21T06:26:08;98947.44;;;7.91;75.18
80149;BME280;69473;42.426;26.644;2023-11-21T06:28:35;98950.22;;;8.19;73.49
80149;BME280;69473;42.426;26.644;2023-11-21T06:31:02;98954.81;;;8.69;71.41
80149;BME280;69473;42.426;26.644;2023-11-21T06:33:31;98945.25;;;8.46;72.38
80149;BME280;69473;42.426;26.644;2023-11-21T06:35:57;98956.97;;;7.95;75.53
80149;BME280;69473;42.426;26.644;2023-11-21T06:38:23;98952.47;;;7.70;73.17
80149;BME280;69473;42.426;26.644;2023-11-21T06:40:49;98948.81;;;7.46;74.12
80149;BME280;69473;42.426;26.644;2023-11-21T06:43:14;98952.03;;;7.22;75.05
80149;BME280;69473;42.426;26.644;2023-11-21T06:45:40;98948.56;;;7.18;75.78
80149;BME280;69473;42.426;26.644;2023-11-21T06:48:06;98950.25;;;7.13;76.40
80149;BME280;69473;42.426;26.644;2023-11-21T06:50:31;98950.25;;;7.13;76.54
80149;BME280;69473;42.426;26.644;2023-11-21T06:52:57;98950.28;;;7.16;75.87
80149;BME280;69473;42.426;26.644;2023-11-21T06:55:22;98950.31;;;7.23;76.44
80149;BME280;69473;42.426;26.644;2023-11-21T06:57:48;98949.50;;;7.27;77.41
80149;BME280;69473;42.426;26.644;2023-11-21T07:00:16;98948.69;;;7.31;76.94
80149;BME280;69473;42.426;26.644;2023-11-21T07:02:43;98943.53;;;7.29;76.24
80149;BME280;69473;42.426;26.644;2023-11-21T07:05:09;98950.41;;;7.32;77.07
80149;BME280;69473;42.426;26.644;2023-11-21T07:07:35;98948.75;;;7.37;76.85
80149;BME280;69473;42.426;26.644;2023-11-21T07:10:03;98948.81;;;7.46;76.60
80149;BME280;69473;42.426;26.644;2023-11-21T07:12:30;98943.69;;;7.49;76.10
80149;BME280;69473;42.426;26.644;2023-11-21T07:14:57;98948.06;;;7.56;75.59
80149;BME280;69473;42.426;26.644;2023-11-21T07:17:22;98940.50;;;7.81;74.30
80149;BME280;69473;42.426;26.644;2023-11-21T07:19:48;98927.00;;;8.22;72.88
80149;BME280;69473;42.426;26.644;2023-11-21T07:22:15;98929.03;;;8.81;70.96
80149;BME280;69473;42.426;26.644;2023-11-21T07:24:48;98917.09;;;9.41;68.15
80149;BME280;69473;42.426;26.644;2023-11-21T07:27:17;98924.78;;;10.13;67.27
80149;BME280;69473;42.426;26.644;2023-11-21T07:29:42;98925.16;;;11.30;61.23
80149;BME280;69473;42.426;26.644;2023-11-21T07:32:08;98921.31;;;12.64;58.91
80149;BME280;69473;42.426;26.644;2023-11-21T07:34:35;98917.34;;;14.60;52.03
80149;BME280;69473;42.426;26.644;2023-11-21T07:37:01;98906.44;;;18.96;42.73
80149;BME280;69473;42.426;26.644;2023-11-21T07:39:28;98909.50;;;19.95;38.42
80149;BME280;69473;42.426;26.644;2023-11-21T07:41:53;98920.03;;;19.51;37.85
80149;BME280;69473;42.426;26.644;2023-11-21T07:44:19;98913.81;;;21.33;35.69
80149;BME280;69473;42.426;26.644;2023-11-21T07:46:46;98931.00;;;22.13;33.32
80149;BME280;69473;42.426;26.644;2023-11-21T07:49:12;98927.38;;;22.33;33.87
80149;BME280;69473;42.426;26.644;2023-11-21T07:51:42;98924.97;;;23.58;32.13
80149;BME280;69473;42.426;26.644;2023-11-21T07:54:07;98921.22;;;23.62;31.43
80149;BME280;69473;42.426;26.644;2023-11-21T07:56:33;98922.38;;;24.18;30.42
80149;BME280;69473;42.426;26.644;2023-11-21T07:58:58;98929.13;;;21.80;33.20
80149;BME280;69473;42.426;26.644;2023-11-21T08:01:24;98923.50;;;24.14;30.86
80149;BME280;69473;42.426;26.644;2023-11-21T08:03:50;98917.72;;;24.81;30.09
80149;BME280;69473;42.426;26.644;2023-11-21T08:06:18;98926.56;;;20.46;35.71
80149;BME280;69473;42.426;26.644;2023-11-21T08:08:43;98935.94;;;19.48;37.40
80149;BME280;69473;42.426;26.644;2023-11-21T08:11:09;98934.47;;;20.26;36.66
80149;BME280;69473;42.426;26.644;2023-11-21T08:13:36;98919.34;;;23.48;32.31
80149;BME280;69473;42.426;26.644;2023-11-21T08:16:01;98918.53;;;26.44;26.66
80149;BME280;69473;42.426;26.644;2023-11-21T08:18:29;98922.44;;;27.15;26.00
80149;BME280;69473;42.426;26.644;2023-11-21T08:20:55;98918.69;;;26.68;27.19
80149;BME280;69473;42.426;26.644;2023-11-21T08:23:21;98921.41;;;27.90;25.75
80149;BME280;69473;42.426;26.644;2023-11-21T08:25:51;98912.97;;;29.21;23.93
80149;BME280;69473;42.426;26.644;2023-11-21T08:28:18;98903.44;;;29.07;24.15
80149;BME280;69473;42.426;26.644;2023-11-21T08:30:43;98911.69;;;29.04;23.64
80149;BME280;69473;42.426;26.644;2023-11-21T08:33:10;98904.19;;;30.69;22.11
80149;BME280;69473;42.426;26.644;2023-11-21T08:35:36;98905.75;;;28.31;23.86
80149;BME280;69473;42.426;26.644;2023-11-21T08:38:02;98906.31;;;28.48;24.26
80149;BME280;69473;42.426;26.644;2023-11-21T08:40:28;98894.69;;;30.34;22.17
80149;BME280;69473;42.426;26.644;2023-11-21T08:42:54;98885.16;;;31.12;21.17
80149;BME280;69473;42.426;26.644;2023-11-21T08:45:21;98881.69;;;29.66;22.87
80149;BME280;69473;42.426;26.644;2023-11-21T08:47:48;98872.19;;;30.36;21.78
80149;BME280;69473;42.426;26.644;2023-11-21T08:50:14;98879.38;;;30.67;21.54
80149;BME280;69473;42.426;26.644;2023-11-21T08:52:41;98873.72;;;31.70;20.15
80149;BME280;69473;42.426;26.644;2023-11-21T08:55:08;98865.53;;;31.42;20.12
80149;BME280;69473;42.426;26.644;2023-11-21T08:57:35;98857.03;;;30.47;21.72
80149;BME280;69473;42.426;26.644;2023-11-21T09:00:01;98857.38;;;30.53;22.18
80149;BME280;69473;42.426;26.644;2023-11-21T09:02:27;98857.84;;;29.75;22.02
80149;BME280;69473;42.426;26.644;2023-11-21T09:04:52;98858.19;;;30.44;21.90
80149;BME280;69473;42.426;26.644;2023-11-21T09:07:21;98852.47;;;29.86;22.40
80149;BME280;69473;42.426;26.644;2023-11-21T09:09:47;98845.75;;;31.24;20.87
80149;BME280;69473;42.426;26.644;2023-11-21T09:12:14;98852.34;;;30.91;21.09
80149;BME280;69473;42.426;26.644;2023-11-21T09:14:40;98846.09;;;31.60;20.95
80149;BME280;69473;42.426;26.644;2023-11-21T09:17:06;98842.44;;;32.00;19.54
80149;BME280;69473;42.426;26.644;2023-11-21T09:19:39;98833.69;;;31.78;20.30
80149;BME280;69473;42.426;26.644;2023-11-21T09:22:06;98837.34;;;29.96;22.17
80149;BME280;69473;42.426;26.644;2023-11-21T09:24:32;98839.41;;;28.85;23.13
80149;BME280;69473;42.426;26.644;2023-11-21T09:26:59;98843.50;;;29.22;23.27
80149;BME280;69473;42.426;26.644;2023-11-21T09:29:26;98829.44;;;30.15;21.69
80149;BME280;69473;42.426;26.644;2023-11-21T09:31:51;98830.81;;;30.31;21.49
80149;BME280;69473;42.426;26.644;2023-11-21T09:34:17;98821.69;;;29.06;21.62
80149;BME280;69473;42.426;26.644;2023-11-21T09:36:47;98824.66;;;28.47;22.55
80149;BME280;69473;42.426;26.644;2023-11-21T09:39:13;98827.69;;;27.14;23.47
80149;BME280;69473;42.426;26.644;2023-11-21T09:41:43;98825.06;;;26.39;24.63
80149;BME280;69473;42.426;26.644;2023-11-21T09:44:13;98820.19;;;24.45;26.50
80149;BME280;69473;42.426;26.644;2023-11-21T09:46:42;98827.03;;;22.66;28.93
80149;BME280;69473;42.426;26.644;2023-11-21T09:49:13;98812.78;;;20.79;32.58
80149;BME280;69473;42.426;26.644;2023-11-21T09:51:43;98810.72;;;19.47;35.15
80149;BME280;69473;42.426;26.644;2023-11-21T09:54:10;98818.16;;;18.93;36.65
80149;BME280;69473;42.426;26.644;2023-11-21T09:56:40;98814.41;;;17.82;40.05
80149;BME280;69473;42.426;26.644;2023-11-21T09:59:06;98807.72;;;18.68;39.33
80149;BME280;69473;42.426;26.644;2023-11-21T10:01:36;98806.44;;;19.02;38.34
80149;BME280;69473;42.426;26.644;2023-11-21T10:04:02;98791.00;;;20.19;37.44
80149;BME280;69473;42.426;26.644;2023-11-21T10:06:30;98791.09;;;22.95;32.59
80149;BME280;69473;42.426;26.644;2023-11-21T10:08:59;98777.28;;;26.00;27.94
80149;BME280;69473;42.426;26.644;2023-11-21T10:11:25;98776.00;;;25.93;27.83
80149;BME280;69473;42.426;26.644;2023-11-21T10:13:55;98768.44;;;28.61;25.57
80149;BME280;69473;42.426;26.644;2023-11-21T10:16:26;98768.56;;;28.03;25.21
80149;BME280;69473;42.426;26.644;2023-11-21T10:18:53;98772.47;;;27.64;25.84
80149;BME280;69473;42.426;26.644;2023-11-21T10:21:21;98768.72;;;28.13;24.42
80149;BME280;69473;42.426;26.644;2023-11-21T10:23:48;98772.34;;;29.44;23.13
80149;BME280;69473;42.426;26.644;2023-11-21T10:26:13;98760.81;;;29.85;23.18
80149;BME280;69473;42.426;26.644;2023-11-21T10:28:58;98761.19;;;28.63;24.45
80149;BME280;69473;42.426;26.644;2023-11-21T10:31:26;98763.41;;;26.46;27.05
80149;BME280;69473;42.426;26.644;2023-11-21T10:33:52;98750.53;;;24.98;29.16
80149;BME280;69473;42.426;26.644;2023-11-21T10:36:28;98751.97;;;25.56;28.78
80149;BME280;69473;42.426;26.644;2023-11-21T10:38:54;98749.66;;;25.65;28.76
80149;BME280;69473;42.426;26.644;2023-11-21T10:41:22;98744.72;;;24.79;29.66
80149;BME280;69473;42.426;26.644;2023-11-21T10:43:48;98745.84;;;25.94;28.41
80149;BME280;69473;42.426;26.644;2023-11-21T10:46:14;98755.59;;;26.07;28.76
80149;BME280;69473;42.426;26.644;2023-11-21T10:48:41;98734.63;;;27.25;27.54
80149;BME280;69473;42.426;26.644;2023-11-21T10:51:08;98732.38;;;27.43;26.71
80149;BME280;69473;42.426;26.644;2023-11-21T10:53:39;98730.72;;;25.31;29.73
80149;BME280;69473;42.426;26.644;2023-11-21T10:56:08;98731.56;;;25.44;30.16
80149;BME280;69473;42.426;26.644;2023-11-21T10:58:38;98731.25;;;24.96;30.97
80149;BME280;69473;42.426;26.644;2023-11-21T11:01:06;98728.34;;;25.14;30.58
80149;BME280;69473;42.426;26.644;2023-11-21T11:03:33;98724.81;;;25.66;30.10
80149;BME280;69473;42.426;26.644;2023-11-21T11:06:02;98729.66;;;26.48;29.21
80149;BME280;69473;42.426;26.644;2023-11-21T11:08:31;98727.16;;;26.09;29.56
80149;BME280;69473;42.426;26.644;2023-11-21T11:10:57;98726.69;;;23.72;33.73
80149;BME280;69473;42.426;26.644;2023-11-21T11:13:23;98719.44;;;25.15;31.17
80149;BME280;69473;42.426;26.644;2023-11-21T11:15:49;98720.19;;;23.34;34.13
80149;BME280;69473;42.426;26.644;2023-11-21T11:18:16;98713.56;;;24.00;32.88
80149;BME280;69473;42.426;26.644;2023-11-21T11:20:46;98710.34;;;25.70;30.60
80149;BME280;69473;42.426;26.644;2023-11-21T11:28:57;98695.44;;;24.35;32.33
80149;BME280;69473;42.426;26.644;2023-11-21T11:32:08;98687.09;;;24.00;33.01
80149;BME280;69473;42.426;26.644;2023-11-21T11:34:47;98689.66;;;23.72;33.47
80149;BME280;69473;42.426;26.644;2023-11-21T11:37:15;98682.78;;;24.26;32.96
80149;BME280;69473;42.426;26.644;2023-11-21T11:39:42;98682.78;;;25.47;30.82
80149;BME280;69473;42.426;26.644;2023-11-21T11:42:17;98671.81;;;27.58;28.17
80149;BME280;69473;42.426;26.644;2023-11-21T11:47:31;98660.66;;;28.31;27.46
80149;BME280;69473;42.426;26.644;2023-11-21T11:52:39;98657.69;;;26.15;30.46
80149;BME280;69473;42.426;26.644;2023-11-21T11:55:19;98654.44;;;24.82;32.16
80149;BME280;69473;42.426;26.644;2023-11-21T11:57:52;98652.47;;;24.58;33.71
80149;BME280;69473;42.426;26.644;2023-11-21T12:02:56;98650.75;;;21.24;40.08
80149;BME280;69473;42.426;26.644;2023-11-21T12:05:25;98640.66;;;20.45;42.02
80149;BME280;69473;42.426;26.644;2023-11-21T12:07:55;98640.88;;;19.26;44.60
80149;BME280;69473;42.426;26.644;2023-11-21T12:10:24;98636.56;;;19.04;45.02
80149;BME280;69473;42.426;26.644;2023-11-21T12:12:52;98641.63;;;18.66;45.28
80149;BME280;69473;42.426;26.644;2023-11-21T12:15:19;98645.19;;;17.74;50.04
80149;BME280;69473;42.426;26.644;2023-11-21T12:17:46;98645.75;;;17.59;47.87
80149;BME280;69473;42.426;26.644;2023-11-21T12:20:13;98639.13;;;17.25;54.04
80149;BME280;69473;42.426;26.644;2023-11-21T12:22:47;98629.88;;;17.15;50.97
80149;BME280;69473;42.426;26.644;2023-11-21T12:25:29;98632.47;;;16.92;55.81
80149;BME280;69473;42.426;26.644;2023-11-21T12:27:58;98630.09;;;16.84;56.99
80149;BME280;69473;42.426;26.644;2023-11-21T12:30:29;98628.13;;;16.91;55.85
80149;BME280;69473;42.426;26.644;2023-11-21T12:32:59;98629.75;;;16.95;55.64
80149;BME280;69473;42.426;26.644;2023-11-21T12:35:31;98625.81;;;16.81;55.50
80149;BME280;69473;42.426;26.644;2023-11-21T12:38:02;98636.00;;;16.62;56.74
80149;BME280;69473;42.426;26.644;2023-11-21T12:40:29;98629.03;;;16.36;57.58
80149;BME280;69473;42.426;26.644;2023-11-21T12:42:56;98625.59;;;16.34;52.45
80149;BME280;69473;42.426;26.644;2023-11-21T12:45:24;98628.53;;;16.52;57.27
80149;BME280;69473;42.426;26.644;2023-11-21T12:47:57;98630.63;;;16.40;58.16
80149;BME280;69473;42.426;26.644;2023-11-21T12:50:27;98630.16;;;16.00;57.75
80149;BME280;69473;42.426;26.644;2023-11-21T12:53:12;98631.06;;;15.70;60.69
80149;BME280;69473;42.426;26.644;2023-11-21T12:55:38;98626.00;;;15.63;59.20
80149;BME280;69473;42.426;26.644;2023-11-21T12:58:07;98629.97;;;15.46;60.87
80149;BME280;69473;42.426;26.644;2023-11-21T13:00:43;98633.56;;;15.42;60.57
80149;BME280;69473;42.426;26.644;2023-11-21T13:03:11;98612.75;;;15.70;61.38
80149;BME280;69473;42.426;26.644;2023-11-21T13:05:49;98614.03;;;15.56;61.52
80149;BME280;69473;42.426;26.644;2023-11-21T13:08:21;98616.59;;;15.26;62.68